sensor_id;sensor_type;location;lat;lon;timestamp;P1;durP1;ratioP1;P2;durP2;ratioP2
4244;SDS011;2136;48.502;9.194;2022-12-29T00:02:22;2.13;;;1.80;;
4244;SDS011;2136;48.502;9.194;2022-12-29T00:04:48;1.97;;;1.63;;
4244;SDS011;2136;48.502;9.194;2022-12-29T00:07:16;1.70;;;1.50;;
4244;SDS011;2136;48.502;9.194;2022-12-29T00:09:43;2.70;;;1.53;;
4244;SDS011;2136;48.502;9.194;2022-12-29T00:12:09;1.40;;;1.40;;
4244;SDS011;2136;48.502;9.194;2022-12-29T00:14:38;5.43;;;1.60;;
4244;SDS011;2136;48.502;9.194;2022-12-29T00:17:22;3.60;;;1.80;;
4244;SDS011;2136;48.502;9.194;2022-12-29T00:19:49;4.37;;;2.00;;
4244;SDS011;2136;48.502;9.194;2022-12-29T00:22:33;2.10;;;1.57;;
4244;SDS011;2136;48.502;9.194;2022-12-29T00:25:17;1.60;;;1.50;;
4244;SDS011;2136;48.502;9.194;2022-12-29T00:28:02;5.93;;;1.93;;
4244;SDS011;2136;48.502;9.194;2022-12-29T00:30:48;2.57;;;1.80;;
4244;SDS011;2136;48.502;9.194;2022-12-29T00:33:33;2.67;;;1.50;;
4244;SDS011;2136;48.502;9.194;2022-12-29T00:36:17;4.03;;;1.60;;
4244;SDS011;2136;48.502;9.194;2022-12-29T00:38:48;1.53;;;1.40;;
4244;SDS011;2136;48.502;9.194;2022-12-29T00:41:34;7.90;;;1.70;;
4244;SDS011;2136;48.502;9.194;2022-12-29T00:44:19;1.63;;;1.30;;
4244;SDS011;2136;48.502;9.194;2022-12-29T00:46:48;1.73;;;1.53;;
4244;SDS011;2136;48.502;9.194;2022-12-29T00:49:15;2.67;;;1.30;;
4244;SDS011;2136;48.502;9.194;2022-12-29T00:51:56;1.43;;;1.33;;
4244;SDS011;2136;48.502;9.194;2022-12-29T00:54:24;2.20;;;1.37;;
4244;SDS011;2136;48.502;9.194;2022-12-29T00:56:52;3.00;;;1.80;;
4244;SDS011;2136;48.502;9.194;2022-12-29T00:59:19;1.50;;;1.30;;
4244;SDS011;2136;48.502;9.194;2022-12-29T01:01:48;8.73;;;1.67;;
4244;SDS011;2136;48.502;9.194;2022-12-29T01:04:14;2.20;;;1.50;;
4244;SDS011;2136;48.502;9.194;2022-12-29T01:06:41;1.80;;;1.60;;
4244;SDS011;2136;48.502;9.194;2022-12-29T01:09:08;2.70;;;1.30;;
4244;SDS011;2136;48.502;9.194;2022-12-29T01:11:53;1.47;;;1.37;;
4244;SDS011;2136;48.502;9.194;2022-12-29T01:14:20;1.30;;;1.20;;
4244;SDS011;2136;48.502;9.194;2022-12-29T01:16:49;3.03;;;1.33;;
4244;SDS011;2136;48.502;9.194;2022-12-29T01:19:16;2.50;;;1.43;;
4244;SDS011;2136;48.502;9.194;2022-12-29T01:21:44;2.90;;;1.80;;
4244;SDS011;2136;48.502;9.194;2022-12-29T01:24:11;2.13;;;1.23;;
4244;SDS011;2136;48.502;9.194;2022-12-29T01:26:38;2.30;;;2.10;;
4244;SDS011;2136;48.502;9.194;2022-12-29T01:29:04;4.97;;;1.80;;
4244;SDS011;2136;48.502;9.194;2022-12-29T01:31:31;2.30;;;1.20;;
4244;SDS011;2136;48.502;9.194;2022-12-29T01:33:59;1.40;;;1.30;;
4244;SDS011;2136;48.502;9.194;2022-12-29T01:36:27;1.80;;;1.53;;
4244;SDS011;2136;48.502;9.194;2022-12-29T01:38:53;2.10;;;1.43;;
4244;SDS011;2136;48.502;9.194;2022-12-29T01:41:20;6.63;;;1.57;;
4244;SDS011;2136;48.502;9.194;2022-12-29T01:43:48;2.60;;;1.70;;
4244;SDS011;2136;48.502;9.194;2022-12-29T01:46:20;1.87;;;1.50;;
4244;SDS011;2136;48.502;9.194;2022-12-29T01:48:51;5.10;;;1.23;;
4244;SDS011;2136;48.502;9.194;2022-12-29T01:51:23;7.17;;;2.23;;
4244;SDS011;2136;48.502;9.194;2022-12-29T01:53:52;1.63;;;1.53;;
4244;SDS011;2136;48.502;9.194;2022-12-29T01:56:21;2.73;;;1.60;;
4244;SDS011;2136;48.502;9.194;2022-12-29T01:58:50;2.20;;;1.57;;
4244;SDS011;2136;48.502;9.194;2022-12-29T02:01:26;5.70;;;2.00;;
4244;SDS011;2136;48.502;9.194;2022-12-29T02:03:53;2.37;;;1.37;;
4244;SDS011;2136;48.502;9.194;2022-12-29T02:06:21;1.60;;;1.50;;
4244;SDS011;2136;48.502;9.194;2022-12-29T02:08:52;1.30;;;1.20;;
4244;SDS011;2136;48.502;9.194;2022-12-29T02:11:21;3.53;;;1.37;;
4244;SDS011;2136;48.502;9.194;2022-12-29T02:13:51;3.33;;;1.47;;
4244;SDS011;2136;48.502;9.194;2022-12-29T02:16:25;5.00;;;1.73;;
4244;SDS011;2136;48.502;9.194;2022-12-29T02:19:04;2.20;;;1.53;;
4244;SDS011;2136;48.502;9.194;2022-12-29T02:22:08;3.00;;;1.50;;
4244;SDS011;2136;48.502;9.194;2022-12-29T02:24:50;1.60;;;1.33;;
4244;SDS011;2136;48.502;9.194;2022-12-29T02:33:14;2.10;;;1.07;;
4244;SDS011;2136;48.502;9.194;2022-12-29T02:35:54;2.83;;;1.53;;
4244;SDS011;2136;48.502;9.194;2022-12-29T02:38:30;1.43;;;1.23;;
4244;SDS011;2136;48.502;9.194;2022-12-29T02:41:05;1.57;;;1.47;;
4244;SDS011;2136;48.502;9.194;2022-12-29T02:43:38;1.77;;;1.67;;
4244;SDS011;2136;48.502;9.194;2022-12-29T02:46:12;1.40;;;1.30;;
4244;SDS011;2136;48.502;9.194;2022-12-29T02:48:46;4.30;;;2.40;;
4244;SDS011;2136;48.502;9.194;2022-12-29T02:51:19;1.27;;;1.00;;
4244;SDS011;2136;48.502;9.194;2022-12-29T02:53:50;1.23;;;1.00;;
4244;SDS011;2136;48.502;9.194;2022-12-29T02:56:36;1.50;;;1.33;;
4244;SDS011;2136;48.502;9.194;2022-12-29T02:59:03;5.00;;;1.30;;
4244;SDS011;2136;48.502;9.194;2022-12-29T03:01:36;0.93;;;0.87;;
4244;SDS011;2136;48.502;9.194;2022-12-29T03:04:34;1.60;;;1.13;;
4244;SDS011;2136;48.502;9.194;2022-12-29T03:07:09;1.20;;;0.90;;
4244;SDS011;2136;48.502;9.194;2022-12-29T03:09:47;1.30;;;1.20;;
4244;SDS011;2136;48.502;9.194;2022-12-29T03:12:21;4.10;;;1.20;;
4244;SDS011;2136;48.502;9.194;2022-12-29T03:15:13;1.60;;;1.43;;
4244;SDS011;2136;48.502;9.194;2022-12-29T03:18:05;1.73;;;1.63;;
4244;SDS011;2136;48.502;9.194;2022-12-29T03:20:37;1.70;;;1.37;;
4244;SDS011;2136;48.502;9.194;2022-12-29T03:23:05;1.93;;;1.60;;
4244;SDS011;2136;48.502;9.194;2022-12-29T03:25:33;2.40;;;1.20;;
4244;SDS011;2136;48.502;9.194;2022-12-29T03:28:05;1.20;;;1.10;;
4244;SDS011;2136;48.502;9.194;2022-12-29T03:30:34;1.80;;;1.27;;
4244;SDS011;2136;48.502;9.194;2022-12-29T03:33:05;3.27;;;1.37;;
4244;SDS011;2136;48.502;9.194;2022-12-29T03:35:36;1.83;;;1.20;;
4244;SDS011;2136;48.502;9.194;2022-12-29T03:38:05;3.63;;;1.40;;
4244;SDS011;2136;48.502;9.194;2022-12-29T03:40:37;1.40;;;1.30;;
4244;SDS011;2136;48.502;9.194;2022-12-29T03:43:06;1.27;;;1.17;;
4244;SDS011;2136;48.502;9.194;2022-12-29T03:45:34;3.63;;;0.90;;
4244;SDS011;2136;48.502;9.194;2022-12-29T03:48:00;2.37;;;1.47;;
4244;SDS011;2136;48.502;9.194;2022-12-29T03:50:29;3.53;;;1.20;;
4244;SDS011;2136;48.502;9.194;2022-12-29T03:52:56;1.83;;;1.10;;
4244;SDS011;2136;48.502;9.194;2022-12-29T03:55:22;2.87;;;1.40;;
4244;SDS011;2136;48.502;9.194;2022-12-29T03:57:49;4.30;;;1.70;;
4244;SDS011;2136;48.502;9.194;2022-12-29T04:00:16;3.97;;;2.20;;
4244;SDS011;2136;48.502;9.194;2022-12-29T04:02:43;3.03;;;1.50;;
4244;SDS011;2136;48.502;9.194;2022-12-29T04:05:10;5.40;;;1.57;;
4244;SDS011;2136;48.502;9.194;2022-12-29T04:07:38;2.83;;;1.10;;
4244;SDS011;2136;48.502;9.194;2022-12-29T04:10:05;1.20;;;0.80;;
4244;SDS011;2136;48.502;9.194;2022-12-29T04:12:32;2.40;;;1.80;;
4244;SDS011;2136;48.502;9.194;2022-12-29T04:14:59;1.60;;;1.10;;
4244;SDS011;2136;48.502;9.194;2022-12-29T04:17:26;2.33;;;0.90;;
4244;SDS011;2136;48.502;9.194;2022-12-29T04:19:52;2.83;;;1.10;;
4244;SDS011;2136;48.502;9.194;2022-12-29T04:22:41;3.30;;;1.20;;
4244;SDS011;2136;48.502;9.194;2022-12-29T04:25:08;4.50;;;1.90;;
4244;SDS011;2136;48.502;9.194;2022-12-29T04:27:35;4.53;;;2.60;;
4244;SDS011;2136;48.502;9.194;2022-12-29T04:30:02;5.30;;;2.03;;
4244;SDS011;2136;48.502;9.194;2022-12-29T04:32:30;2.90;;;1.80;;
4244;SDS011;2136;48.502;9.194;2022-12-29T04:34:56;1.47;;;1.37;;
4244;SDS011;2136;48.502;9.194;2022-12-29T04:37:23;1.80;;;1.43;;
4244;SDS011;2136;48.502;9.194;2022-12-29T04:39:51;2.10;;;1.17;;
4244;SDS011;2136;48.502;9.194;2022-12-29T04:42:18;3.17;;;1.37;;
4244;SDS011;2136;48.502;9.194;2022-12-29T04:44:45;3.00;;;1.23;;
4244;SDS011;2136;48.502;9.194;2022-12-29T04:47:11;2.47;;;1.20;;
4244;SDS011;2136;48.502;9.194;2022-12-29T04:49:38;3.73;;;1.30;;
4244;SDS011;2136;48.502;9.194;2022-12-29T04:52:05;1.20;;;1.10;;
4244;SDS011;2136;48.502;9.194;2022-12-29T04:54:33;3.13;;;2.80;;
4244;SDS011;2136;48.502;9.194;2022-12-29T04:57:01;6.77;;;2.00;;
4244;SDS011;2136;48.502;9.194;2022-12-29T04:59:28;4.83;;;2.63;;
4244;SDS011;2136;48.502;9.194;2022-12-29T05:01:55;2.20;;;1.73;;
4244;SDS011;2136;48.502;9.194;2022-12-29T05:04:21;14.83;;;5.63;;
4244;SDS011;2136;48.502;9.194;2022-12-29T05:06:48;11.57;;;4.20;;
4244;SDS011;2136;48.502;9.194;2022-12-29T05:09:15;3.03;;;1.83;;
4244;SDS011;2136;48.502;9.194;2022-12-29T05:11:42;5.27;;;2.70;;
4244;SDS011;2136;48.502;9.194;2022-12-29T05:14:10;3.90;;;2.67;;
4244;SDS011;2136;48.502;9.194;2022-12-29T05:16:37;2.20;;;2.00;;
4244;SDS011;2136;48.502;9.194;2022-12-29T05:19:03;3.60;;;1.67;;
4244;SDS011;2136;48.502;9.194;2022-12-29T05:21:30;8.23;;;3.30;;
4244;SDS011;2136;48.502;9.194;2022-12-29T05:23:57;1.43;;;1.30;;
4244;SDS011;2136;48.502;9.194;2022-12-29T05:26:24;2.40;;;1.40;;
4244;SDS011;2136;48.502;9.194;2022-12-29T05:28:51;2.47;;;1.20;;
4244;SDS011;2136;48.502;9.194;2022-12-29T05:31:19;3.60;;;2.07;;
4244;SDS011;2136;48.502;9.194;2022-12-29T05:33:46;5.87;;;4.10;;
4244;SDS011;2136;48.502;9.194;2022-12-29T05:36:13;1.73;;;1.53;;
4244;SDS011;2136;48.502;9.194;2022-12-29T05:38:39;3.47;;;1.20;;
4244;SDS011;2136;48.502;9.194;2022-12-29T05:41:06;2.00;;;1.20;;
4244;SDS011;2136;48.502;9.194;2022-12-29T05:43:33;15.30;;;5.00;;
4244;SDS011;2136;48.502;9.194;2022-12-29T05:46:00;12.20;;;4.60;;
4244;SDS011;2136;48.502;9.194;2022-12-29T05:48:28;10.23;;;3.17;;
4244;SDS011;2136;48.502;9.194;2022-12-29T05:50:55;7.13;;;3.23;;
4244;SDS011;2136;48.502;9.194;2022-12-29T05:53:22;10.70;;;4.80;;
4244;SDS011;2136;48.502;9.194;2022-12-29T05:55:49;15.50;;;5.30;;
4244;SDS011;2136;48.502;9.194;2022-12-29T05:58:16;4.80;;;2.50;;
4244;SDS011;2136;48.502;9.194;2022-12-29T06:00:43;5.40;;;3.03;;
4244;SDS011;2136;48.502;9.194;2022-12-29T06:03:10;1.30;;;1.23;;
4244;SDS011;2136;48.502;9.194;2022-12-29T06:05:38;7.60;;;3.23;;
4244;SDS011;2136;48.502;9.194;2022-12-29T06:08:05;5.23;;;2.30;;
4244;SDS011;2136;48.502;9.194;2022-12-29T06:10:32;1.83;;;1.70;;
4244;SDS011;2136;48.502;9.194;2022-12-29T06:12:59;4.03;;;1.50;;
4244;SDS011;2136;48.502;9.194;2022-12-29T06:15:25;1.20;;;1.10;;
4244;SDS011;2136;48.502;9.194;2022-12-29T06:17:52;1.90;;;1.20;;
4244;SDS011;2136;48.502;9.194;2022-12-29T06:20:19;1.80;;;1.00;;
4244;SDS011;2136;48.502;9.194;2022-12-29T06:22:47;0.90;;;0.90;;
4244;SDS011;2136;48.502;9.194;2022-12-29T06:25:14;1.27;;;1.10;;
4244;SDS011;2136;48.502;9.194;2022-12-29T06:27:41;1.10;;;1.10;;
4244;SDS011;2136;48.502;9.194;2022-12-29T06:30:09;1.27;;;1.10;;
4244;SDS011;2136;48.502;9.194;2022-12-29T06:32:37;1.00;;;1.00;;
4244;SDS011;2136;48.502;9.194;2022-12-29T06:35:04;1.10;;;1.10;;
4244;SDS011;2136;48.502;9.194;2022-12-29T06:37:32;5.60;;;1.10;;
4244;SDS011;2136;48.502;9.194;2022-12-29T06:40:00;5.00;;;1.40;;
4244;SDS011;2136;48.502;9.194;2022-12-29T06:42:27;2.27;;;0.93;;
4244;SDS011;2136;48.502;9.194;2022-12-29T06:44:54;1.90;;;1.30;;
4244;SDS011;2136;48.502;9.194;2022-12-29T06:47:23;1.50;;;1.40;;
4244;SDS011;2136;48.502;9.194;2022-12-29T06:49:50;2.93;;;1.80;;
4244;SDS011;2136;48.502;9.194;2022-12-29T06:52:17;1.93;;;1.43;;
4244;SDS011;2136;48.502;9.194;2022-12-29T06:54:43;1.20;;;1.10;;
4244;SDS011;2136;48.502;9.194;2022-12-29T06:57:11;2.00;;;1.40;;
4244;SDS011;2136;48.502;9.194;2022-12-29T06:59:38;1.27;;;1.17;;
4244;SDS011;2136;48.502;9.194;2022-12-29T07:02:05;1.47;;;1.20;;
4244;SDS011;2136;48.502;9.194;2022-12-29T07:04:32;7.80;;;1.67;;
4244;SDS011;2136;48.502;9.194;2022-12-29T07:06:58;2.90;;;1.20;;
4244;SDS011;2136;48.502;9.194;2022-12-29T07:09:25;1.60;;;1.20;;
4244;SDS011;2136;48.502;9.194;2022-12-29T07:11:52;2.50;;;1.00;;
4244;SDS011;2136;48.502;9.194;2022-12-29T07:14:20;2.70;;;1.20;;
4244;SDS011;2136;48.502;9.194;2022-12-29T07:16:47;1.43;;;1.33;;
4244;SDS011;2136;48.502;9.194;2022-12-29T07:19:14;1.20;;;1.10;;
4244;SDS011;2136;48.502;9.194;2022-12-29T07:21:40;1.17;;;1.00;;
4244;SDS011;2136;48.502;9.194;2022-12-29T07:24:07;3.10;;;1.40;;
4244;SDS011;2136;48.502;9.194;2022-12-29T07:26:35;2.57;;;1.50;;
4244;SDS011;2136;48.502;9.194;2022-12-29T07:29:02;1.10;;;1.10;;
4244;SDS011;2136;48.502;9.194;2022-12-29T07:31:30;2.20;;;1.10;;
4244;SDS011;2136;48.502;9.194;2022-12-29T07:33:57;1.10;;;1.10;;
4244;SDS011;2136;48.502;9.194;2022-12-29T07:36:24;2.17;;;1.23;;
4244;SDS011;2136;48.502;9.194;2022-12-29T07:38:50;1.30;;;1.20;;
4244;SDS011;2136;48.502;9.194;2022-12-29T07:41:17;1.23;;;1.00;;
4244;SDS011;2136;48.502;9.194;2022-12-29T07:43:46;1.20;;;1.00;;
4244;SDS011;2136;48.502;9.194;2022-12-29T07:46:13;1.03;;;1.03;;
4244;SDS011;2136;48.502;9.194;2022-12-29T07:48:41;2.57;;;1.60;;
4244;SDS011;2136;48.502;9.194;2022-12-29T07:51:08;1.10;;;1.10;;
4244;SDS011;2136;48.502;9.194;2022-12-29T07:53:35;1.80;;;0.90;;
4244;SDS011;2136;48.502;9.194;2022-12-29T07:56:02;2.23;;;1.17;;
4244;SDS011;2136;48.502;9.194;2022-12-29T07:58:29;1.17;;;0.90;;
4244;SDS011;2136;48.502;9.194;2022-12-29T08:00:56;2.70;;;1.20;;
4244;SDS011;2136;48.502;9.194;2022-12-29T08:03:22;3.70;;;1.17;;
4244;SDS011;2136;48.502;9.194;2022-12-29T08:05:52;2.47;;;2.27;;
4244;SDS011;2136;48.502;9.194;2022-12-29T08:08:19;2.10;;;1.30;;
4244;SDS011;2136;48.502;9.194;2022-12-29T08:10:46;3.00;;;1.67;;
4244;SDS011;2136;48.502;9.194;2022-12-29T08:13:13;1.63;;;1.10;;
4244;SDS011;2136;48.502;9.194;2022-12-29T08:15:40;3.30;;;1.13;;
4244;SDS011;2136;48.502;9.194;2022-12-29T08:18:07;2.10;;;0.90;;
4244;SDS011;2136;48.502;9.194;2022-12-29T08:20:34;1.60;;;1.50;;
4244;SDS011;2136;48.502;9.194;2022-12-29T08:23:02;7.70;;;1.10;;
4244;SDS011;2136;48.502;9.194;2022-12-29T08:25:29;1.63;;;1.10;;
4244;SDS011;2136;48.502;9.194;2022-12-29T08:27:55;1.27;;;1.00;;
4244;SDS011;2136;48.502;9.194;2022-12-29T08:30:22;2.63;;;1.00;;
4244;SDS011;2136;48.502;9.194;2022-12-29T08:32:49;1.57;;;1.20;;
4244;SDS011;2136;48.502;9.194;2022-12-29T08:35:16;3.70;;;1.30;;
4244;SDS011;2136;48.502;9.194;2022-12-29T08:37:43;1.63;;;1.50;;
4244;SDS011;2136;48.502;9.194;2022-12-29T08:40:11;1.20;;;1.10;;
4244;SDS011;2136;48.502;9.194;2022-12-29T08:42:39;1.57;;;1.23;;
4244;SDS011;2136;48.502;9.194;2022-12-29T08:45:06;1.47;;;1.10;;
4244;SDS011;2136;48.502;9.194;2022-12-29T08:47:34;1.77;;;1.30;;
4244;SDS011;2136;48.502;9.194;2022-12-29T08:50:01;1.07;;;1.03;;
4244;SDS011;2136;48.502;9.194;2022-12-29T08:52:28;0.90;;;0.90;;
4244;SDS011;2136;48.502;9.194;2022-12-29T08:54:55;1.90;;;1.37;;
4244;SDS011;2136;48.502;9.194;2022-12-29T08:57:23;0.90;;;0.90;;
4244;SDS011;2136;48.502;9.194;2022-12-29T08:59:50;1.43;;;1.10;;
4244;SDS011;2136;48.502;9.194;2022-12-29T09:02:17;2.27;;;1.20;;
4244;SDS011;2136;48.502;9.194;2022-12-29T09:04:43;1.17;;;1.07;;
4244;SDS011;2136;48.502;9.194;2022-12-29T09:07:10;1.23;;;1.10;;
4244;SDS011;2136;48.502;9.194;2022-12-29T09:09:37;1.03;;;1.03;;
4244;SDS011;2136;48.502;9.194;2022-12-29T09:12:04;1.60;;;1.10;;
4244;SDS011;2136;48.502;9.194;2022-12-29T09:14:32;1.07;;;1.07;;
4244;SDS011;2136;48.502;9.194;2022-12-29T09:16:59;2.83;;;1.33;;
4244;SDS011;2136;48.502;9.194;2022-12-29T09:19:43;1.40;;;1.00;;
4244;SDS011;2136;48.502;9.194;2022-12-29T09:22:10;2.73;;;1.33;;
4244;SDS011;2136;48.502;9.194;2022-12-29T09:24:37;1.20;;;0.98;;
4244;SDS011;2136;48.502;9.194;2022-12-29T09:27:03;1.27;;;1.17;;
4244;SDS011;2136;48.502;9.194;2022-12-29T09:29:30;3.37;;;1.10;;
4244;SDS011;2136;48.502;9.194;2022-12-29T09:31:58;0.90;;;0.90;;
4244;SDS011;2136;48.502;9.194;2022-12-29T09:34:25;1.33;;;1.13;;
4244;SDS011;2136;48.502;9.194;2022-12-29T09:36:52;1.17;;;1.07;;
4244;SDS011;2136;48.502;9.194;2022-12-29T09:39:19;6.67;;;1.23;;
4244;SDS011;2136;48.502;9.194;2022-12-29T09:41:48;1.60;;;1.17;;
4244;SDS011;2136;48.502;9.194;2022-12-29T09:44:23;1.73;;;1.07;;
4244;SDS011;2136;48.502;9.194;2022-12-29T09:46:57;1.47;;;1.10;;
4244;SDS011;2136;48.502;9.194;2022-12-29T09:49:26;6.13;;;1.30;;
4244;SDS011;2136;48.502;9.194;2022-12-29T09:52:02;2.63;;;1.10;;
4244;SDS011;2136;48.502;9.194;2022-12-29T09:54:34;1.63;;;1.53;;
4244;SDS011;2136;48.502;9.194;2022-12-29T09:57:08;1.03;;;1.03;;
4244;SDS011;2136;48.502;9.194;2022-12-29T09:59:42;1.47;;;1.30;;
4244;SDS011;2136;48.502;9.194;2022-12-29T10:02:16;0.97;;;0.90;;
4244;SDS011;2136;48.502;9.194;2022-12-29T10:04:53;1.17;;;1.03;;
4244;SDS011;2136;48.502;9.194;2022-12-29T10:07:23;1.53;;;1.20;;
4244;SDS011;2136;48.502;9.194;2022-12-29T10:09:59;2.27;;;1.23;;
4244;SDS011;2136;48.502;9.194;2022-12-29T10:12:33;1.13;;;1.13;;
4244;SDS011;2136;48.502;9.194;2022-12-29T10:15:12;1.30;;;1.07;;
4244;SDS011;2136;48.502;9.194;2022-12-29T10:17:48;2.40;;;1.20;;
4244;SDS011;2136;48.502;9.194;2022-12-29T10:20:28;1.30;;;1.20;;
4244;SDS011;2136;48.502;9.194;2022-12-29T10:23:03;4.10;;;1.40;;
4244;SDS011;2136;48.502;9.194;2022-12-29T10:25:48;4.40;;;1.00;;
4244;SDS011;2136;48.502;9.194;2022-12-29T10:28:18;2.73;;;1.00;;
4244;SDS011;2136;48.502;9.194;2022-12-29T10:30:48;1.53;;;1.10;;
4244;SDS011;2136;48.502;9.194;2022-12-29T10:33:19;1.97;;;1.27;;
4244;SDS011;2136;48.502;9.194;2022-12-29T10:35:49;1.90;;;1.20;;
4244;SDS011;2136;48.502;9.194;2022-12-29T10:38:20;1.53;;;1.43;;
4244;SDS011;2136;48.502;9.194;2022-12-29T10:40:53;1.83;;;1.20;;
4244;SDS011;2136;48.502;9.194;2022-12-29T10:43:25;2.77;;;1.27;;
4244;SDS011;2136;48.502;9.194;2022-12-29T10:45:54;2.73;;;1.20;;
4244;SDS011;2136;48.502;9.194;2022-12-29T10:48:25;2.03;;;1.33;;
4244;SDS011;2136;48.502;9.194;2022-12-29T10:50:56;1.30;;;1.20;;
4244;SDS011;2136;48.502;9.194;2022-12-29T10:53:27;1.80;;;1.30;;
4244;SDS011;2136;48.502;9.194;2022-12-29T10:56:01;2.03;;;1.13;;
4244;SDS011;2136;48.502;9.194;2022-12-29T10:58:42;1.60;;;1.50;;
4244;SDS011;2136;48.502;9.194;2022-12-29T11:01:13;2.20;;;2.00;;
4244;SDS011;2136;48.502;9.194;2022-12-29T11:03:44;1.17;;;0.83;;
4244;SDS011;2136;48.502;9.194;2022-12-29T11:06:25;2.20;;;1.53;;
4244;SDS011;2136;48.502;9.194;2022-12-29T11:08:55;2.87;;;1.20;;
4244;SDS011;2136;48.502;9.194;2022-12-29T11:11:24;1.50;;;1.13;;
4244;SDS011;2136;48.502;9.194;2022-12-29T11:13:56;1.30;;;1.20;;
4244;SDS011;2136;48.502;9.194;2022-12-29T11:16:28;4.97;;;1.40;;
4244;SDS011;2136;48.502;9.194;2022-12-29T11:18:58;1.50;;;1.37;;
4244;SDS011;2136;48.502;9.194;2022-12-29T11:21:26;4.93;;;1.20;;
4244;SDS011;2136;48.502;9.194;2022-12-29T11:23:59;2.13;;;1.50;;
4244;SDS011;2136;48.502;9.194;2022-12-29T11:26:27;1.90;;;1.13;;
4244;SDS011;2136;48.502;9.194;2022-12-29T11:31:47;2.25;;;1.20;;
4244;SDS011;2136;48.502;9.194;2022-12-29T11:34:20;2.00;;;1.17;;
4244;SDS011;2136;48.502;9.194;2022-12-29T11:36:48;1.70;;;1.60;;
4244;SDS011;2136;48.502;9.194;2022-12-29T11:39:23;1.40;;;1.30;;
4244;SDS011;2136;48.502;9.194;2022-12-29T11:41:59;1.30;;;1.17;;
4244;SDS011;2136;48.502;9.194;2022-12-29T11:44:27;2.13;;;1.53;;
4244;SDS011;2136;48.502;9.194;2022-12-29T11:47:00;1.47;;;1.30;;
4244;SDS011;2136;48.502;9.194;2022-12-29T11:49:29;2.70;;;1.93;;
4244;SDS011;2136;48.502;9.194;2022-12-29T11:51:56;1.63;;;1.07;;
4244;SDS011;2136;48.502;9.194;2022-12-29T11:54:23;3.10;;;1.33;;
4244;SDS011;2136;48.502;9.194;2022-12-29T11:56:53;1.63;;;1.23;;
4244;SDS011;2136;48.502;9.194;2022-12-29T11:59:21;1.60;;;1.50;;
4244;SDS011;2136;48.502;9.194;2022-12-29T12:02:03;1.30;;;1.20;;
4244;SDS011;2136;48.502;9.194;2022-12-29T12:04:40;1.50;;;1.40;;
4244;SDS011;2136;48.502;9.194;2022-12-29T12:07:10;2.07;;;1.43;;
4244;SDS011;2136;48.502;9.194;2022-12-29T12:09:42;1.60;;;1.50;;
4244;SDS011;2136;48.502;9.194;2022-12-29T12:12:15;1.40;;;1.30;;
4244;SDS011;2136;48.502;9.194;2022-12-29T12:14:51;8.53;;;1.20;;
4244;SDS011;2136;48.502;9.194;2022-12-29T12:17:22;2.60;;;1.40;;
4244;SDS011;2136;48.502;9.194;2022-12-29T12:20:02;1.50;;;1.40;;
4244;SDS011;2136;48.502;9.194;2022-12-29T12:22:40;3.43;;;1.30;;
4244;SDS011;2136;48.502;9.194;2022-12-29T12:25:11;1.03;;;1.03;;
4244;SDS011;2136;48.502;9.194;2022-12-29T12:27:43;1.90;;;1.57;;
4244;SDS011;2136;48.502;9.194;2022-12-29T12:30:15;9.00;;;1.60;;
4244;SDS011;2136;48.502;9.194;2022-12-29T12:32:45;2.60;;;1.63;;
4244;SDS011;2136;48.502;9.194;2022-12-29T12:35:20;1.80;;;1.70;;
4244;SDS011;2136;48.502;9.194;2022-12-29T12:37:55;5.83;;;1.90;;
4244;SDS011;2136;48.502;9.194;2022-12-29T12:40:35;1.53;;;1.43;;
4244;SDS011;2136;48.502;9.194;2022-12-29T12:43:20;4.40;;;1.80;;
4244;SDS011;2136;48.502;9.194;2022-12-29T12:46:03;1.77;;;1.50;;
4244;SDS011;2136;48.502;9.194;2022-12-29T12:48:47;1.43;;;1.33;;
4244;SDS011;2136;48.502;9.194;2022-12-29T12:51:32;1.30;;;1.20;;
4244;SDS011;2136;48.502;9.194;2022-12-29T12:54:06;2.50;;;1.97;;
4244;SDS011;2136;48.502;9.194;2022-12-29T12:56:44;2.70;;;1.70;;
4244;SDS011;2136;48.502;9.194;2022-12-29T12:59:25;1.70;;;1.30;;
4244;SDS011;2136;48.502;9.194;2022-12-29T13:02:09;6.37;;;3.27;;
4244;SDS011;2136;48.502;9.194;2022-12-29T13:10:58;1.63;;;1.53;;
4244;SDS011;2136;48.502;9.194;2022-12-29T13:13:38;1.90;;;1.73;;
4244;SDS011;2136;48.502;9.194;2022-12-29T13:16:26;1.73;;;1.57;;
4244;SDS011;2136;48.502;9.194;2022-12-29T13:19:01;2.17;;;1.73;;
4244;SDS011;2136;48.502;9.194;2022-12-29T13:21:35;1.80;;;1.53;;
4244;SDS011;2136;48.502;9.194;2022-12-29T13:24:12;3.10;;;1.67;;
4244;SDS011;2136;48.502;9.194;2022-12-29T13:26:46;3.93;;;1.43;;
4244;SDS011;2136;48.502;9.194;2022-12-29T13:29:17;4.23;;;1.60;;
4244;SDS011;2136;48.502;9.194;2022-12-29T13:31:49;2.77;;;1.40;;
4244;SDS011;2136;48.502;9.194;2022-12-29T13:34:25;2.67;;;1.57;;
4244;SDS011;2136;48.502;9.194;2022-12-29T13:36:59;1.73;;;1.40;;
4244;SDS011;2136;48.502;9.194;2022-12-29T13:39:33;2.40;;;1.53;;
4244;SDS011;2136;48.502;9.194;2022-12-29T13:42:02;6.53;;;2.63;;
4244;SDS011;2136;48.502;9.194;2022-12-29T13:44:31;2.43;;;1.17;;
4244;SDS011;2136;48.502;9.194;2022-12-29T13:47:01;3.10;;;2.00;;
4244;SDS011;2136;48.502;9.194;2022-12-29T13:49:33;2.43;;;1.87;;
4244;SDS011;2136;48.502;9.194;2022-12-29T13:52:04;3.13;;;1.80;;
4244;SDS011;2136;48.502;9.194;2022-12-29T13:54:44;6.73;;;1.93;;
4244;SDS011;2136;48.502;9.194;2022-12-29T13:57:25;2.40;;;1.60;;
4244;SDS011;2136;48.502;9.194;2022-12-29T14:00:02;2.00;;;1.80;;
4244;SDS011;2136;48.502;9.194;2022-12-29T14:02:40;1.70;;;1.60;;
4244;SDS011;2136;48.502;9.194;2022-12-29T14:05:28;4.20;;;1.60;;
4244;SDS011;2136;48.502;9.194;2022-12-29T14:07:57;2.37;;;1.67;;
4244;SDS011;2136;48.502;9.194;2022-12-29T14:10:29;2.63;;;1.50;;
4244;SDS011;2136;48.502;9.194;2022-12-29T14:13:02;2.93;;;1.60;;
4244;SDS011;2136;48.502;9.194;2022-12-29T14:15:32;2.73;;;1.60;;
4244;SDS011;2136;48.502;9.194;2022-12-29T14:18:11;3.90;;;2.40;;
4244;SDS011;2136;48.502;9.194;2022-12-29T14:20:46;4.20;;;2.00;;
4244;SDS011;2136;48.502;9.194;2022-12-29T14:23:26;15.03;;;5.87;;
4244;SDS011;2136;48.502;9.194;2022-12-29T14:26:11;6.27;;;4.13;;
4244;SDS011;2136;48.502;9.194;2022-12-29T14:28:41;9.17;;;5.77;;
4244;SDS011;2136;48.502;9.194;2022-12-29T14:37:03;7.93;;;3.93;;
4244;SDS011;2136;48.502;9.194;2022-12-29T14:39:31;8.97;;;5.00;;
4244;SDS011;2136;48.502;9.194;2022-12-29T14:42:06;7.90;;;4.60;;
4244;SDS011;2136;48.502;9.194;2022-12-29T14:44:47;2.77;;;2.53;;
4244;SDS011;2136;48.502;9.194;2022-12-29T14:47:19;1.60;;;1.27;;
4244;SDS011;2136;48.502;9.194;2022-12-29T14:50:02;3.50;;;1.27;;
4244;SDS011;2136;48.502;9.194;2022-12-29T14:52:32;1.77;;;1.40;;
4244;SDS011;2136;48.502;9.194;2022-12-29T14:55:32;1.67;;;1.57;;
4244;SDS011;2136;48.502;9.194;2022-12-29T14:58:06;5.90;;;1.60;;
4244;SDS011;2136;48.502;9.194;2022-12-29T15:00:40;2.40;;;1.70;;
4244;SDS011;2136;48.502;9.194;2022-12-29T15:03:13;6.83;;;1.97;;
4244;SDS011;2136;48.502;9.194;2022-12-29T15:05:46;1.80;;;1.70;;
4244;SDS011;2136;48.502;9.194;2022-12-29T15:08:17;2.30;;;1.60;;
4244;SDS011;2136;48.502;9.194;2022-12-29T15:10:47;1.50;;;1.40;;
4244;SDS011;2136;48.502;9.194;2022-12-29T15:13:23;8.70;;;1.97;;
4244;SDS011;2136;48.502;9.194;2022-12-29T15:15:58;1.97;;;1.40;;
4244;SDS011;2136;48.502;9.194;2022-12-29T15:18:25;4.10;;;1.47;;
4244;SDS011;2136;48.502;9.194;2022-12-29T15:20:54;1.60;;;1.50;;
4244;SDS011;2136;48.502;9.194;2022-12-29T15:23:23;1.57;;;1.47;;
4244;SDS011;2136;48.502;9.194;2022-12-29T15:25:52;2.00;;;1.87;;
4244;SDS011;2136;48.502;9.194;2022-12-29T15:28:22;4.20;;;1.70;;
4244;SDS011;2136;48.502;9.194;2022-12-29T15:30:51;1.50;;;1.40;;
4244;SDS011;2136;48.502;9.194;2022-12-29T15:33:20;4.90;;;1.83;;
4244;SDS011;2136;48.502;9.194;2022-12-29T15:35:49;1.97;;;1.87;;
4244;SDS011;2136;48.502;9.194;2022-12-29T15:38:21;7.10;;;1.60;;
4244;SDS011;2136;48.502;9.194;2022-12-29T15:40:51;2.30;;;1.73;;
4244;SDS011;2136;48.502;9.194;2022-12-29T15:43:26;2.73;;;1.80;;
4244;SDS011;2136;48.502;9.194;2022-12-29T15:46:05;3.00;;;2.40;;
4244;SDS011;2136;48.502;9.194;2022-12-29T15:48:32;3.20;;;2.50;;
4244;SDS011;2136;48.502;9.194;2022-12-29T15:50:59;2.40;;;1.40;;
4244;SDS011;2136;48.502;9.194;2022-12-29T15:53:27;4.03;;;2.03;;
4244;SDS011;2136;48.502;9.194;2022-12-29T15:55:56;5.00;;;1.80;;
4244;SDS011;2136;48.502;9.194;2022-12-29T15:58:27;3.13;;;1.57;;
4244;SDS011;2136;48.502;9.194;2022-12-29T16:00:56;1.70;;;1.40;;